createdAt,value
2022-12-02T00:00:34.596Z,0.51
2022-12-02T00:03:14.673Z,0.59
2022-12-02T00:05:43.929Z,0.74
2022-12-02T00:08:26.662Z,0.56
2022-12-02T00:11:02.980Z,0.56
2022-12-02T00:14:04.286Z,0.72
2022-12-02T00:16:35.109Z,0.75
2022-12-02T00:19:04.871Z,0.63
2022-12-02T00:24:19.108Z,0.65
2022-12-02T00:26:49.643Z,0.60
2022-12-02T00:29:24.996Z,0.62
2022-12-02T00:31:55.400Z,0.64
2022-12-02T00:37:25.703Z,0.45
2022-12-02T00:39:53.895Z,0.43
2022-12-02T00:42:28.463Z,0.38
2022-12-02T00:45:22.098Z,0.56
2022-12-02T00:47:53.814Z,0.51
2022-12-02T00:50:22.810Z,0.43
2022-12-02T00:52:53.494Z,0.44
2022-12-02T00:58:18.385Z,0.50
2022-12-02T01:00:47.809Z,0.49
2022-12-02T01:03:18.754Z,0.50
2022-12-02T01:05:47.997Z,0.26
2022-12-02T01:08:18.540Z,0.25
2022-12-02T01:10:48.733Z,0.20
2022-12-02T01:13:19.124Z,0.35
2022-12-02T01:15:47.845Z,0.26
2022-12-02T01:18:19.424Z,0.36
2022-12-02T01:20:50.581Z,0.38
2022-12-02T01:23:27.853Z,0.26
2022-12-02T01:26:06.660Z,0.23
2022-12-02T01:28:42.795Z,0.35
2022-12-02T01:31:17.822Z,0.16
2022-12-02T01:33:47.528Z,0.17
2022-12-02T01:36:16.680Z,0.11
2022-12-02T01:38:49.236Z,0.18
2022-12-02T01:41:19.282Z,0.34
2022-12-02T01:43:50.409Z,0.35
2022-12-02T01:46:19.116Z,0.34
2022-12-02T01:49:02.560Z,0.31
2022-12-02T01:51:31.955Z,0.29
2022-12-02T01:54:07.399Z,0.37
2022-12-02T01:56:39.604Z,0.35
2022-12-02T01:59:16.496Z,0.19
2022-12-02T02:01:54.421Z,0.16
2022-12-02T02:04:23.627Z,0.36
2022-12-02T02:10:24.746Z,0.33
2022-12-02T02:12:59.060Z,0.35
2022-12-02T02:15:30.841Z,0.30
2022-12-02T02:18:05.294Z,0.13
2022-12-02T02:20:39.048Z,0.16
2022-12-02T02:23:09.430Z,0.27
2022-12-02T02:25:45.520Z,0.15
2022-12-02T02:28:15.336Z,0.11
2022-12-02T02:30:46.556Z,0.26
2022-12-02T02:33:16.652Z,0.30
2022-12-02T02:35:50.690Z,0.38
2022-12-02T02:38:25.249Z,0.33
2022-12-02T02:40:56.861Z,0.28
2022-12-02T02:43:37.741Z,0.35
2022-12-02T02:49:10.723Z,0.25
2022-12-02T02:51:40.072Z,0.20
2022-12-02T02:54:11.533Z,0.20
2022-12-02T02:56:42.942Z,0.30
2022-12-02T02:59:17.926Z,0.27
2022-12-02T03:01:52.798Z,0.24
2022-12-02T03:04:25.987Z,0.25
2022-12-02T03:06:58.343Z,0.13
2022-12-02T03:09:28.510Z,0.26
2022-12-02T03:12:00.213Z,0.38
2022-12-02T03:14:35.768Z,0.32
2022-12-02T03:17:09.922Z,0.42
2022-12-02T03:19:42.680Z,0.27
2022-12-02T03:22:13.705Z,0.15
2022-12-02T03:24:47.012Z,0.18
2022-12-02T03:27:28.017Z,0.31
2022-12-02T03:32:48.263Z,0.30
2022-12-02T03:38:06.764Z,0.35
2022-12-02T03:40:40.312Z,0.34
2022-12-02T03:43:11.897Z,0.30
2022-12-02T03:45:44.047Z,0.25
2022-12-02T03:48:15.418Z,0.16
2022-12-02T03:50:43.645Z,0.17
2022-12-02T03:53:17.714Z,0.21
2022-12-02T03:55:47.088Z,0.19
2022-12-02T03:58:19.779Z,-0.04
2022-12-02T04:00:48.896Z,0.12
2022-12-02T04:03:18.494Z,0.17
2022-12-02T04:05:49.741Z,0.02
2022-12-02T04:08:19.595Z,0.11
2022-12-02T04:10:47.566Z,0.16
2022-12-02T04:13:19.810Z,0.09
2022-12-02T04:15:54.626Z,-0.10
2022-12-02T04:18:26.065Z,0.08
2022-12-02T04:20:56.248Z,0.13
2022-12-02T04:23:25.930Z,0.21
2022-12-02T04:26:03.467Z,0.11
2022-12-02T04:28:37.780Z,0.19
2022-12-02T04:31:21.100Z,0.10
2022-12-02T04:36:47.223Z,0.21
2022-12-02T04:39:19.432Z,0.02
2022-12-02T04:41:48.634Z,0.18
2022-12-02T04:44:18.342Z,0.09
2022-12-02T04:46:50.060Z,0.20
2022-12-02T04:49:18.799Z,0.19
2022-12-02T04:51:48.761Z,0.20
2022-12-02T04:54:22.070Z,0.09
2022-12-02T04:56:54.018Z,0.04
2022-12-02T04:59:22.975Z,0.12
2022-12-02T05:01:53.983Z,0.18
2022-12-02T05:04:24.146Z,0.16
2022-12-02T05:06:55.340Z,0.16
2022-12-02T05:09:25.494Z,0.16
2022-12-02T05:11:55.148Z,0.29
2022-12-02T05:14:24.389Z,0.35
2022-12-02T05:17:04.801Z,0.24
2022-12-02T05:19:35.260Z,0.33
2022-12-02T05:22:11.491Z,0.34
2022-12-02T05:24:53.182Z,0.27
2022-12-02T05:27:32.319Z,0.29
2022-12-02T05:30:09.034Z,0.24
2022-12-02T05:32:39.676Z,0.43
2022-12-02T05:35:12.255Z,0.26
2022-12-02T05:37:46.314Z,0.43
2022-12-02T05:40:18.797Z,0.37
2022-12-02T05:46:41.105Z,0.39
2022-12-02T05:49:25.933Z,0.38
2022-12-02T05:55:13.130Z,0.48
2022-12-02T06:31:33.822Z,0.55
2022-12-02T06:43:44.761Z,0.79
2022-12-02T06:46:22.936Z,0.86
2022-12-02T06:49:23.528Z,0.75
2022-12-02T06:52:00.822Z,0.89
2022-12-02T06:54:44.970Z,0.98
2022-12-02T07:03:04.079Z,1.11
2022-12-02T07:08:44.526Z,1.01
2022-12-02T07:14:55.801Z,1.17
2022-12-02T07:17:37.915Z,1.30
2022-12-02T07:20:09.358Z,1.37
2022-12-02T07:23:16.359Z,1.46
2022-12-02T07:28:53.134Z,1.34
2022-12-02T07:31:28.485Z,1.47
2022-12-02T07:33:58.273Z,1.61
2022-12-02T07:39:14.280Z,1.63
2022-12-02T07:45:22.192Z,1.83
2022-12-02T07:50:50.183Z,2.09
2022-12-02T07:53:34.832Z,2.22
2022-12-02T07:56:11.259Z,2.17
2022-12-02T07:59:11.840Z,2.25
2022-12-02T08:01:56.513Z,1.98
2022-12-02T08:04:34.370Z,2.07
2022-12-02T08:07:04.739Z,2.25
2022-12-02T08:12:34.263Z,2.26
2022-12-02T08:15:04.648Z,2.32
2022-12-02T08:17:39.548Z,2.32
2022-12-02T08:20:18.560Z,2.53
2022-12-02T08:26:05.320Z,2.48
2022-12-02T08:28:38.821Z,2.50
2022-12-02T08:36:54.769Z,2.35
2022-12-02T08:42:42.940Z,2.48
2022-12-02T08:45:13.349Z,2.69
2022-12-02T08:53:52.950Z,2.75
2022-12-02T08:56:25.593Z,2.94
2022-12-02T08:59:01.845Z,2.88
2022-12-02T09:01:34.399Z,2.82
2022-12-02T09:04:08.156Z,2.86
2022-12-02T09:25:34.624Z,3.32
2022-12-02T09:28:21.198Z,3.42
2022-12-02T09:34:03.447Z,3.38
2022-12-02T09:36:37.942Z,3.38
2022-12-02T09:39:11.848Z,3.32
2022-12-02T09:45:00.755Z,3.39
2022-12-02T09:47:31.569Z,3.57
2022-12-02T09:50:01.098Z,3.77
2022-12-02T09:52:48.581Z,3.80
2022-12-02T09:55:38.772Z,3.91
2022-12-02T09:58:43.393Z,3.86
2022-12-02T10:01:47.708Z,3.95
2022-12-02T13:59:17.809Z,4.53
2022-12-02T14:01:46.478Z,4.57
2022-12-02T14:04:15.858Z,4.51
2022-12-02T14:06:44.328Z,4.49
2022-12-02T14:09:13.499Z,4.58
2022-12-02T14:11:43.196Z,4.60
2022-12-02T14:14:12.571Z,4.47
2022-12-02T14:16:41.446Z,4.51
2022-12-02T14:19:10.696Z,4.50
2022-12-02T14:21:39.774Z,4.19
2022-12-02T14:24:08.781Z,4.27
2022-12-02T14:26:38.063Z,4.33
2022-12-02T14:29:06.339Z,4.20
2022-12-02T14:31:35.457Z,4.26
2022-12-02T14:34:13.362Z,4.32
2022-12-02T14:36:44.035Z,4.27
2022-12-02T14:39:12.642Z,4.29
2022-12-02T14:41:42.149Z,4.33
2022-12-02T14:44:10.412Z,4.28
2022-12-02T14:46:39.541Z,4.40
2022-12-02T14:49:38.866Z,4.19
2022-12-02T14:51:58.514Z,4.23
2022-12-02T14:54:26.329Z,4.14
2022-12-02T14:56:56.045Z,4.08
2022-12-02T14:59:24.479Z,4.17
2022-12-02T15:01:52.629Z,4.19
2022-12-02T15:04:21.393Z,4.19
2022-12-02T15:06:50.445Z,4.23
2022-12-02T15:09:18.513Z,4.18
2022-12-02T15:11:48.044Z,3.99
2022-12-02T15:14:17.186Z,3.91
2022-12-02T15:16:46.160Z,4.00
2022-12-02T15:19:14.397Z,4.06
2022-12-02T15:21:47.037Z,4.01
2022-12-02T15:24:15.224Z,3.97
2022-12-02T15:26:53.700Z,3.87
2022-12-02T15:29:24.620Z,3.93
2022-12-02T15:31:55.448Z,3.70
2022-12-02T15:34:25.530Z,3.67
2022-12-02T15:36:54.958Z,3.78
2022-12-02T15:39:23.379Z,3.90
2022-12-02T15:41:52.733Z,3.74
2022-12-02T15:44:21.732Z,3.88
2022-12-02T15:46:50.853Z,3.81
2022-12-02T15:49:19.346Z,3.70
2022-12-02T15:51:48.579Z,3.63
2022-12-02T15:54:34.189Z,3.76
2022-12-02T15:57:09.920Z,3.84
2022-12-02T15:59:57.646Z,3.95
2022-12-02T16:02:57.835Z,3.76
2022-12-02T16:08:37.250Z,3.65
2022-12-02T16:11:06.338Z,3.73
2022-12-02T16:13:35.593Z,3.71
2022-12-02T16:16:05.962Z,3.77
2022-12-02T16:18:34.468Z,3.65
2022-12-02T16:21:03.650Z,3.58
2022-12-02T16:23:34.883Z,3.71
2022-12-02T16:26:04.342Z,3.47
2022-12-02T16:28:33.541Z,3.51
2022-12-02T16:31:02.608Z,3.59
2022-12-02T16:33:31.668Z,3.51
2022-12-02T16:38:48.640Z,3.62
2022-12-02T16:41:26.410Z,3.60
2022-12-02T16:43:56.446Z,3.51
2022-12-02T16:46:29.003Z,3.44
2022-12-02T16:48:59.846Z,3.60
2022-12-02T16:51:32.628Z,3.58
2022-12-02T16:54:01.657Z,3.40
2022-12-02T16:56:33.912Z,3.61
2022-12-02T16:59:07.734Z,3.41
2022-12-02T17:01:38.781Z,3.51
2022-12-02T17:04:07.646Z,3.67
2022-12-02T17:06:39.858Z,3.65
2022-12-02T17:09:09.584Z,3.70
2022-12-02T17:11:38.249Z,3.47
2022-12-02T17:14:09.844Z,3.57
2022-12-02T17:16:41.654Z,3.49
2022-12-02T17:19:10.439Z,3.50
2022-12-02T17:21:39.774Z,3.56
2022-12-02T17:24:09.303Z,3.42
2022-12-02T17:26:38.674Z,3.51
2022-12-02T17:29:07.455Z,3.38
2022-12-02T17:34:28.867Z,3.42
2022-12-02T17:37:02.105Z,3.44
2022-12-02T17:39:47.133Z,3.40
2022-12-02T17:42:19.117Z,3.35
2022-12-02T17:44:48.264Z,3.23
2022-12-02T17:47:18.455Z,3.27
2022-12-02T17:49:49.823Z,3.30
2022-12-02T17:52:21.815Z,3.19
2022-12-02T17:54:56.205Z,3.32
2022-12-02T18:06:26.267Z,3.32
2022-12-02T18:08:58.176Z,3.35
2022-12-02T18:11:42.018Z,3.24
2022-12-02T18:14:12.150Z,3.16
2022-12-02T18:16:58.121Z,3.06
2022-12-02T18:19:48.165Z,2.95
2022-12-02T18:22:34.315Z,2.98
2022-12-02T18:25:05.876Z,3.08
2022-12-02T18:30:32.984Z,3.03
2022-12-02T18:33:11.672Z,3.01
2022-12-02T18:44:30.317Z,3.10
2022-12-02T18:52:39.957Z,3.03
2022-12-02T18:58:22.534Z,2.94
2022-12-02T19:01:04.351Z,3.03
2022-12-02T19:06:46.093Z,3.05
2022-12-02T19:09:29.646Z,3.17
2022-12-02T19:12:01.769Z,3.07
2022-12-02T19:14:35.620Z,3.12
2022-12-02T19:17:10.260Z,2.95
2022-12-02T19:19:46.932Z,2.85
2022-12-02T19:22:19.256Z,2.82
2022-12-02T19:24:51.181Z,2.75
2022-12-02T19:33:29.028Z,2.76
2022-12-02T22:28:49.521Z,1.72
2022-12-02T22:31:17.582Z,1.79
2022-12-02T22:33:47.093Z,1.69
2022-12-02T22:36:15.636Z,1.84
2022-12-02T22:38:44.575Z,1.79
2022-12-02T22:41:12.521Z,1.80
2022-12-02T22:43:41.651Z,1.79
2022-12-02T22:46:09.540Z,1.83
2022-12-02T22:48:38.381Z,1.87
2022-12-02T22:51:06.582Z,1.82
2022-12-02T22:53:35.989Z,1.66
2022-12-02T22:56:07.773Z,1.72
2022-12-02T22:58:36.963Z,1.80
2022-12-02T23:01:05.831Z,1.90
2022-12-02T23:03:34.966Z,1.85
2022-12-02T23:06:04.290Z,1.65
2022-12-02T23:08:33.679Z,1.65
2022-12-02T23:11:03.397Z,1.54
2022-12-02T23:13:31.583Z,1.56
2022-12-02T23:16:00.080Z,1.52
2022-12-02T23:18:28.936Z,1.45
2022-12-02T23:20:57.591Z,1.47
2022-12-02T23:23:25.634Z,1.51
2022-12-02T23:25:54.531Z,1.65
2022-12-02T23:28:22.760Z,1.41
2022-12-02T23:30:52.175Z,1.46
2022-12-02T23:33:24.057Z,1.36
2022-12-02T23:35:53.876Z,1.28
2022-12-02T23:38:24.557Z,1.34
2022-12-02T23:40:53.833Z,1.30
2022-12-02T23:43:23.187Z,1.30
2022-12-02T23:45:52.254Z,1.30
2022-12-02T23:48:21.208Z,1.35
2022-12-02T23:50:49.607Z,1.24
2022-12-02T23:53:18.552Z,1.01
2022-12-02T23:55:47.385Z,0.96
2022-12-02T23:58:18.387Z,0.87
